Time;durP1;ratioP1;P1;durP2;ratioP2;P2;SDS_P1;SDS_P2;PMS_P1;PMS_P2;Temp;Humidity;BMP_temperature;BMP_pressure;BME280_temperature;BME280_humidity;BME280_pressure;Samples;Min_cycle;Max_cycle;Signal;HPM_P1;HPM_P2
2021/11/07 00:00:39;;;;;;;2.60;2.37;;;5.80;99.90;5.70;97512.00;;;;5099186;28;20202;-87
2021/11/07 00:03:31;;;;;;;4.00;2.83;;;5.80;99.90;5.80;97518.00;;;;5113379;28;20205;-86
2021/11/07 00:06:24;;;;;;;3.83;3.03;;;5.90;99.90;5.80;97516.00;;;;5108823;28;20198;-87
2021/11/07 00:09:20;;;;;;;5.57;3.63;;;5.90;99.90;5.80;97521.00;;;;5106768;28;20939;-86
2021/11/07 00:12:16;;;;;;;6.13;4.23;;;5.90;99.90;5.70;97510.00;;;;5105881;28;20617;-87
2021/11/07 00:15:07;;;;;;;5.20;4.17;;;5.90;99.90;5.70;97510.00;;;;5106295;28;20249;-86
2021/11/07 00:17:57;;;;;;;6.37;3.80;;;5.90;99.90;5.60;97511.00;;;;5107717;28;20218;-86
2021/11/07 00:20:52;;;;;;;5.13;3.53;;;5.90;99.90;5.70;97512.00;;;;5106781;28;20199;-86
2021/11/07 00:23:51;;;;;;;6.00;3.73;;;5.90;99.90;5.70;97498.00;;;;5094313;28;20223;-86
2021/11/07 00:26:50;;;;;;;9.27;4.70;;;5.90;99.90;5.50;97490.00;;;;5112939;27;20557;-86
2021/11/07 00:29:46;;;;;;;7.87;5.00;;;5.90;99.90;5.50;97479.00;;;;5103860;27;20199;-86
2021/11/07 00:32:44;;;;;;;2.80;2.30;;;5.90;99.90;5.30;97481.00;;;;5091798;28;20576;-86
2021/11/07 00:38:58;;;;;;;5.67;3.57;;;5.80;99.90;5.40;97463.00;;;;5090615;28;20213;-86
2021/11/07 00:41:53;;;;;;;8.30;3.40;;;5.70;99.90;5.40;97464.00;;;;5097586;27;20244;-86
2021/11/07 00:44:49;;;;;;;8.90;2.97;;;5.70;99.90;5.30;97461.00;;;;5107931;27;20632;-87
2021/11/07 00:47:43;;;;;;;3.27;2.70;;;5.70;99.90;5.40;97467.00;;;;5107974;27;20568;-87
2021/11/07 00:50:42;;;;;;;4.07;3.17;;;5.70;99.90;5.50;97458.00;;;;5111046;27;20558;-86
2021/11/07 00:53:44;;;;;;;3.43;2.57;;;5.70;99.90;5.40;97464.00;;;;5098479;27;20210;-86
2021/11/07 00:56:37;;;;;;;4.17;2.67;;;5.70;99.90;5.50;97460.00;;;;5090814;28;20237;-86
2021/11/07 00:59:37;;;;;;;6.03;2.97;;;5.70;99.90;5.60;97462.00;;;;5088428;28;20203;-86
2021/11/07 01:02:31;;;;;;;6.60;3.37;;;5.70;99.90;5.70;97464.00;;;;5091072;28;20218;-86
2021/11/07 01:05:24;;;;;;;5.53;3.63;;;5.80;99.90;5.80;97463.00;;;;5100107;28;20602;-86
2021/11/07 01:08:14;;;;;;;3.50;2.77;;;6.80;99.90;5.90;97461.00;;;;5110893;28;20194;-86
2021/11/07 01:11:03;;;;;;;3.37;3.07;;;5.90;99.90;5.90;97454.00;;;;5110907;27;20206;-86
2021/11/07 01:13:53;;;;;;;6.17;3.90;;;5.90;99.90;5.70;97446.00;;;;5111579;28;20234;-86
2021/11/07 01:16:42;;;;;;;5.63;3.60;;;5.90;99.90;5.50;97446.00;;;;5110011;28;20206;-86
2021/11/07 01:19:31;;;;;;;6.30;3.73;;;5.90;99.90;5.40;97440.00;;;;5110101;28;20229;-86
2021/11/07 01:22:29;;;;;;;4.43;3.53;;;5.90;99.90;5.50;97438.00;;;;5106681;28;20199;-86
2021/11/07 01:25:18;;;;;;;4.80;3.27;;;5.80;99.90;5.60;97434.00;;;;5103228;27;20225;-85
2021/11/07 01:28:08;;;;;;;6.17;3.67;;;5.80;99.90;5.70;97429.00;;;;5102537;28;20209;-85
2021/11/07 01:30:59;;;;;;;5.43;3.73;;;5.80;99.90;5.70;97426.00;;;;5109714;28;20206;-86
2021/11/07 01:33:48;;;;;;;6.03;4.10;;;5.80;99.90;5.70;97412.00;;;;5109249;28;20707;-86
2021/11/07 01:36:41;;;;;;;4.90;3.97;;;5.90;99.90;5.70;97410.00;;;;5094673;28;20452;-86
2021/11/07 01:39:40;;;;;;;4.50;3.17;;;5.90;99.90;5.40;97404.00;;;;5089043;28;20210;-86
2021/11/07 01:42:33;;;;;;;3.73;2.53;;;5.90;99.90;5.30;97401.00;;;;5098647;28;20202;-86
2021/11/07 01:45:26;;;;;;;2.50;1.87;;;5.80;99.90;5.30;97396.00;;;;5108412;28;20222;-86
2021/11/07 01:48:19;;;;;;;2.23;1.83;;;5.80;99.90;5.50;97391.00;;;;5108472;28;20586;-86
2021/11/07 01:51:10;;;;;;;2.77;2.40;;;5.70;99.90;5.50;97378.00;;;;5108004;28;20207;-85
2021/11/07 01:54:10;;;;;;;1.97;1.70;;;5.70;99.90;5.40;97375.00;;;;5104573;27;20223;-86
2021/11/07 01:57:01;;;;;;;2.23;2.03;;;5.70;99.90;5.40;97354.00;;;;5095480;27;20313;-86
2021/11/07 01:59:52;;;;;;;2.97;1.80;;;5.70;99.90;5.60;97370.00;;;;5121464;27;20199;-86
2021/11/07 02:02:41;;;;;;;3.00;2.03;;;5.70;99.90;5.70;97370.00;;;;5090012;28;20202;-86
2021/11/07 02:05:30;;;;;;;2.10;1.90;;;5.80;99.90;5.70;97371.00;;;;5088990;28;20223;-86
2021/11/07 02:08:19;;;;;;;2.20;2.00;;;5.80;99.90;5.70;97374.00;;;;5089790;28;20203;-85
2021/11/07 02:11:08;;;;;;;2.23;1.97;;;5.80;99.90;5.70;97366.00;;;;5092455;28;20683;-86
2021/11/07 02:14:00;;;;;;;2.43;1.80;;;5.80;99.90;5.80;97367.00;;;;5108258;28;20699;-86
2021/11/07 02:16:48;;;;;;;2.30;1.80;;;5.90;99.90;5.80;97359.00;;;;5089744;28;20207;-86
2021/11/07 02:19:38;;;;;;;3.00;2.00;;;5.80;99.90;5.80;97350.00;;;;5108655;28;20211;-86
2021/11/07 02:22:28;;;;;;;2.30;2.10;;;5.90;99.90;5.80;97344.00;;;;5107624;28;20640;-86
2021/11/07 02:25:17;;;;;;;2.23;1.70;;;5.90;99.90;5.60;97339.00;;;;5108860;28;20223;-86
2021/11/07 02:28:07;;;;;;;2.13;1.80;;;5.90;99.90;5.70;97337.00;;;;5089059;28;20779;-86
2021/11/07 02:30:56;;;;;;;1.73;1.53;;;5.90;99.90;5.60;97332.00;;;;5096246;28;20222;-85
2021/11/07 02:33:46;;;;;;;1.60;1.50;;;5.90;99.90;5.70;97327.00;;;;5118044;27;20418;-86
2021/11/07 02:36:35;;;;;;;1.70;1.53;;;5.90;99.90;5.80;97328.00;;;;5100336;27;20206;-85
2021/11/07 02:39:26;;;;;;;3.27;1.80;;;5.90;99.90;5.70;97324.00;;;;5088881;28;20235;-85
2021/11/07 02:42:17;;;;;;;2.07;1.67;;;5.90;99.90;5.50;97324.00;;;;5088339;28;20191;-86
2021/11/07 02:45:07;;;;;;;2.20;2.00;;;5.80;99.90;5.40;97320.00;;;;5087159;28;20219;-86
2021/11/07 02:47:56;;;;;;;4.10;3.77;;;5.80;99.90;5.30;97318.00;;;;5088179;28;20199;-86
2021/11/07 02:50:45;;;;;;;2.23;1.80;;;5.80;99.90;5.30;97323.00;;;;5087721;28;20207;-86
2021/11/07 02:53:35;;;;;;;3.17;1.87;;;5.70;99.90;5.40;97316.00;;;;5092650;27;20231;-86
2021/11/07 02:56:25;;;;;;;2.10;1.97;;;5.70;99.90;5.50;97308.00;;;;5088371;28;20215;-86
2021/11/07 02:59:22;;;;;;;1.77;1.67;;;5.70;99.90;5.40;97289.00;;;;5087009;28;20223;-86
2021/11/07 03:02:14;;;;;;;2.10;1.60;;;5.70;99.90;5.40;97308.00;;;;5099548;28;20205;-86
2021/11/07 03:05:08;;;;;;;3.10;1.60;;;5.70;99.90;5.40;97302.00;;;;5107379;28;20437;-86
2021/11/07 03:07:57;;;;;;;3.87;2.00;;;5.70;99.90;5.30;97300.00;;;;5108125;28;20199;-86
2021/11/07 03:10:46;;;;;;;2.53;2.17;;;5.60;99.90;5.10;97302.00;;;;5094481;28;20207;-86
2021/11/07 03:13:36;;;;;;;1.83;1.73;;;5.60;99.90;5.10;97293.00;;;;5108349;28;20699;-86
2021/11/07 03:16:26;;;;;;;1.80;1.63;;;5.50;99.90;4.90;97294.00;;;;5101758;27;20508;-86
2021/11/07 03:19:16;;;;;;;2.17;1.97;;;5.40;99.90;4.80;97302.00;;;;5113552;27;20608;-86
2021/11/07 03:22:09;;;;;;;2.73;2.53;;;5.30;99.90;4.80;97306.00;;;;5097353;27;20203;-86
2021/11/07 03:24:59;;;;;;;2.97;2.30;;;5.30;99.90;4.70;97315.00;;;;5095234;28;20222;-86
2021/11/07 03:27:47;;;;;;;2.17;1.83;;;5.20;99.90;4.60;97317.00;;;;5119686;27;20657;-86
2021/11/07 03:30:44;;;;;;;4.93;1.80;;;5.10;99.90;4.40;97308.00;;;;5089597;27;20199;-86
2021/11/07 03:33:39;;;;;;;2.57;1.90;;;5.00;99.90;4.10;97308.00;;;;5087650;28;20619;-85
2021/11/07 03:36:32;;;;;;;2.10;1.53;;;4.90;99.90;4.20;97313.00;;;;5087202;28;20199;-86
2021/11/07 03:39:22;;;;;;;1.60;1.50;;;4.70;99.90;4.30;97300.00;;;;5087839;28;20227;-86
2021/11/07 03:42:13;;;;;;;2.13;1.87;;;4.70;99.90;4.20;97298.00;;;;5095729;28;20205;-86
2021/11/07 03:45:03;;;;;;;2.00;1.90;;;4.60;99.90;4.20;97304.00;;;;5088774;28;20233;-86
2021/11/07 03:47:53;;;;;;;1.30;1.20;;;4.60;99.90;4.20;97309.00;;;;5088033;28;20203;-86
2021/11/07 03:50:45;;;;;;;1.73;1.63;;;4.50;99.90;4.20;97312.00;;;;5096105;28;20198;-86
2021/11/07 03:53:34;;;;;;;1.57;1.47;;;4.50;99.90;4.20;97308.00;;;;5104681;28;20711;-86
2021/11/07 03:56:22;;;;;;;2.00;1.77;;;4.50;99.90;4.30;97303.00;;;;5087759;28;20211;-86
2021/11/07 03:59:11;;;;;;;1.73;1.53;;;4.50;99.90;4.20;97296.00;;;;5090363;28;20227;-86
2021/11/07 04:02:01;;;;;;;2.70;2.00;;;4.50;99.90;3.90;97296.00;;;;5100177;28;20578;-86
2021/11/07 04:04:51;;;;;;;1.70;1.60;;;4.50;99.90;3.50;97286.00;;;;5111091;28;20726;-86
2021/11/07 04:07:41;;;;;;;4.63;2.03;;;4.30;99.90;3.50;97277.00;;;;5097874;28;20465;-86
2021/11/07 04:10:30;;;;;;;2.93;1.80;;;4.20;99.90;3.50;97281.00;;;;5111378;28;20210;-86
2021/11/07 04:13:19;;;;;;;3.27;1.60;;;4.10;99.90;3.70;97287.00;;;;5091903;28;20195;-85
2021/11/07 04:16:11;;;;;;;2.10;1.77;;;4.10;99.90;3.80;97292.00;;;;5098057;28;20981;-86
2021/11/07 04:19:00;;;;;;;1.57;1.47;;;4.10;99.90;3.90;97285.00;;;;5094663;28;20484;-85
2021/11/07 04:21:52;;;;;;;2.20;2.00;;;4.10;99.90;3.90;97283.00;;;;5089812;28;20828;-86
2021/11/07 04:24:41;;;;;;;2.43;1.40;;;4.20;99.90;4.00;97280.00;;;;5096365;28;20444;-86
2021/11/07 04:27:30;;;;;;;1.70;1.60;;;4.30;99.90;3.90;97290.00;;;;5092717;27;20207;-86
2021/11/07 04:30:19;;;;;;;2.77;1.60;;;4.30;99.90;3.80;97279.00;;;;5091253;28;20487;-86
2021/11/07 04:33:08;;;;;;;1.87;1.60;;;4.30;99.90;3.80;97279.00;;;;5090917;28;20433;-86
2021/11/07 04:35:57;;;;;;;1.73;1.40;;;4.20;99.90;3.90;97281.00;;;;5090042;28;20195;-86
2021/11/07 04:38:48;;;;;;;1.83;1.47;;;4.20;99.90;3.80;97271.00;;;;5090785;28;20223;-87
2021/11/07 04:41:37;;;;;;;2.17;1.67;;;4.20;99.90;3.50;97263.00;;;;5091194;28;20202;-87
2021/11/07 04:44:26;;;;;;;1.47;1.37;;;4.10;99.90;3.60;97259.00;;;;5089939;28;20223;-87
2021/11/07 04:47:15;;;;;;;2.63;1.00;;;4.10;99.90;3.60;97261.00;;;;5090227;28;20461;-86
2021/11/07 04:50:07;;;;;;;0.90;0.90;;;4.00;99.90;3.60;97262.00;;;;5091495;28;20274;-85
2021/11/07 04:52:56;;;;;;;1.40;1.33;;;4.00;99.90;3.60;97261.00;;;;5094714;27;20441;-86
2021/11/07 04:55:46;;;;;;;1.53;1.43;;;4.00;99.90;3.60;97256.00;;;;5090000;28;20592;-86
2021/11/07 04:58:35;;;;;;;1.20;1.10;;;4.00;99.90;3.60;97256.00;;;;5090987;28;20750;-86
2021/11/07 05:01:24;;;;;;;2.03;1.40;;;4.00;99.90;3.40;97255.00;;;;5089899;28;20422;-86
2021/11/07 05:04:13;;;;;;;1.70;1.60;;;3.90;99.90;3.20;97241.00;;;;5090705;28;20226;-86
2021/11/07 05:07:26;;;;;;;1.50;1.40;;;3.90;99.90;3.20;97245.00;;;;5090412;28;20217;-86
2021/11/07 05:10:15;;;;;;;1.33;1.20;;;3.80;99.90;3.00;97242.00;;;;5094971;28;20221;-87
2021/11/07 05:13:08;;;;;;;1.90;1.50;;;3.70;99.90;3.00;97239.00;;;;5090372;28;20780;-86
2021/11/07 05:15:57;;;;;;;1.60;1.50;;;3.60;99.90;3.10;97242.00;;;;5090851;28;20448;-87
2021/11/07 05:18:45;;;;;;;3.43;2.83;;;3.60;99.90;2.90;97247.00;;;;5090835;28;20473;-87
2021/11/07 05:21:35;;;;;;;1.97;1.80;;;3.60;99.90;2.80;97245.00;;;;5090642;28;20432;-86
2021/11/07 05:24:23;;;;;;;1.53;1.40;;;3.50;99.90;2.50;97248.00;;;;5097576;28;20451;-86
2021/11/07 05:27:12;;;;;;;1.93;1.40;;;3.30;99.90;2.80;97257.00;;;;5092129;28;20436;-87
2021/11/07 05:30:05;;;;;;;1.40;1.30;;;3.30;99.90;2.90;97279.00;;;;5089349;28;20425;-86
2021/11/07 05:32:54;;;;;;;1.57;1.37;;;3.30;99.90;3.00;97260.00;;;;5091453;28;20675;-86
2021/11/07 05:35:44;;;;;;;1.50;1.40;;;3.30;99.90;3.00;97265.00;;;;5089966;28;21018;-86
2021/11/07 05:38:32;;;;;;;5.33;1.40;;;3.30;99.90;3.00;97272.00;;;;5092327;28;20803;-86
2021/11/07 05:41:24;;;;;;;2.97;2.00;;;3.30;99.90;2.70;97276.00;;;;5107431;28;20429;-87
2021/11/07 05:44:13;;;;;;;1.83;1.60;;;3.30;99.90;2.60;97280.00;;;;5097907;28;21123;-86
2021/11/07 05:47:04;;;;;;;2.37;2.27;;;3.30;99.90;2.70;97286.00;;;;5088869;28;20425;-86
2021/11/07 05:49:53;;;;;;;1.73;1.53;;;3.20;99.90;2.70;97281.00;;;;5088548;28;20429;-86
2021/11/07 05:52:43;;;;;;;1.53;1.43;;;3.20;99.90;2.80;97291.00;;;;5102734;27;20941;-87
2021/11/07 05:55:32;;;;;;;1.63;1.33;;;3.20;99.90;2.80;97278.00;;;;5089439;28;20457;-86
2021/11/07 05:58:21;;;;;;;1.60;1.50;;;3.20;99.90;2.80;97249.00;;;;5088824;28;20439;-86
2021/11/07 06:01:10;;;;;;;1.50;1.40;;;3.20;99.90;2.50;97241.00;;;;5086258;28;20422;-86
2021/11/07 06:04:00;;;;;;;2.13;1.60;;;3.20;99.90;2.30;97231.00;;;;5106806;28;20433;-86
2021/11/07 06:06:49;;;;;;;3.27;1.33;;;3.10;99.90;2.20;97212.00;;;;5108487;28;20421;-86
2021/11/07 06:09:38;;;;;;;3.07;2.03;;;3.00;99.90;2.30;97219.00;;;;5090298;28;20445;-87
2021/11/07 06:12:27;;;;;;;1.57;1.37;;;2.90;99.90;2.40;97221.00;;;;5103291;28;20524;-87
2021/11/07 06:15:15;;;;;;;1.70;1.60;;;2.90;99.90;2.40;97215.00;;;;5089697;28;20482;-86
2021/11/07 06:18:04;;;;;;;2.07;1.33;;;2.90;99.90;2.10;97227.00;;;;5090383;28;20418;-88
2021/11/07 06:20:56;;;;;;;1.67;1.57;;;2.90;99.90;2.20;97206.00;;;;5088030;28;20469;-86
2021/11/07 06:23:47;;;;;;;2.00;1.40;;;2.80;99.90;2.50;97220.00;;;;5087470;28;20446;-86
2021/11/07 06:26:36;;;;;;;1.93;1.83;;;2.80;99.90;2.50;97218.00;;;;5089607;28;20455;-86
2021/11/07 06:29:25;;;;;;;3.87;1.33;;;2.90;99.90;2.30;97231.00;;;;5088942;28;20441;-85
2021/11/07 06:32:14;;;;;;;1.73;1.27;;;2.90;99.90;2.10;97228.00;;;;5098996;28;20425;-85
2021/11/07 06:35:05;;;;;;;1.40;1.30;;;2.80;99.90;2.10;97230.00;;;;5088244;28;20446;-86
2021/11/07 06:37:56;;;;;;;4.00;1.53;;;2.80;99.90;2.40;97220.00;;;;5097991;28;20435;-85
2021/11/07 06:40:45;;;;;;;1.77;1.40;;;2.80;99.90;2.60;97206.00;;;;5107726;28;20468;-85
2021/11/07 06:43:34;;;;;;;2.03;1.30;;;2.80;99.90;2.70;97205.00;;;;5092569;28;20426;-86
2021/11/07 06:46:23;;;;;;;1.30;1.10;;;2.90;99.90;2.60;97196.00;;;;5088025;28;20418;-85
2021/11/07 06:49:14;;;;;;;1.70;1.60;;;3.00;99.90;2.50;97205.00;;;;5086745;28;20429;-87
2021/11/07 06:52:04;;;;;;;2.10;1.90;;;3.00;99.90;2.40;97203.00;;;;5087933;28;20421;-86
2021/11/07 06:54:55;;;;;;;1.63;1.53;;;3.00;99.90;2.60;97201.00;;;;5101520;27;20446;-85
2021/11/07 06:57:44;;;;;;;2.57;2.37;;;3.00;99.90;2.80;97200.00;;;;5096831;28;20427;-83
2021/11/07 07:00:34;;;;;;;5.20;1.77;;;3.10;99.90;2.90;97215.00;;;;5088319;28;20473;-85
2021/11/07 07:03:23;;;;;;;1.40;1.30;;;3.20;99.90;3.20;97201.00;;;;5104187;28;20436;-86
2021/11/07 07:06:12;;;;;;;1.63;1.47;;;3.30;99.90;3.20;97202.00;;;;5106486;28;20835;-88
2021/11/07 07:09:05;;;;;;;3.10;2.00;;;3.40;99.90;3.20;97199.00;;;;5103976;28;20456;-88
2021/11/07 07:12:05;;;;;;;1.77;1.50;;;3.50;99.90;3.20;97194.00;;;;5105260;28;20428;-87
2021/11/07 07:15:02;;;;;;;1.43;1.33;;;3.60;99.90;3.30;97189.00;;;;5097363;28;20830;-88
2021/11/07 07:17:58;;;;;;;2.33;1.60;;;3.60;99.90;3.30;97186.00;;;;5087197;28;20430;-88
2021/11/07 07:20:54;;;;;;;1.53;1.30;;;3.70;99.90;3.30;97185.00;;;;5087074;28;20465;-88
2021/11/07 07:24:13;;;;;;;2.13;1.83;;;3.70;99.90;3.10;97165.00;;;;5104339;28;20462;-89
2021/11/07 07:30:16;;;;;;;2.93;1.83;;;3.70;99.90;3.10;97179.00;;;;5094388;28;20437;-87
2021/11/07 07:33:24;;;;;;;1.73;1.63;;;3.60;99.90;2.80;97169.00;;;;5087793;28;20449;-89
2021/11/07 07:36:14;;;;;;;2.10;1.90;;;3.70;99.90;2.50;97155.00;;;;5101620;27;20415;-88
2021/11/07 07:39:08;;;;;;;2.40;2.20;;;3.40;99.90;2.60;97166.00;;;;5106388;27;20452;-88
2021/11/07 07:41:57;;;;;;;1.50;1.40;;;3.30;99.90;2.30;97152.00;;;;5094548;27;20788;-90
2021/11/07 07:44:50;;;;;;;1.80;1.70;;;3.20;99.90;2.00;97146.00;;;;5090833;28;20454;-89
2021/11/07 07:47:42;;;;;;;4.90;1.40;;;3.10;99.90;2.30;97149.00;;;;5111099;27;20414;-86
2021/11/07 07:50:31;;;;;;;1.77;1.67;;;3.00;99.90;2.50;97159.00;;;;5091417;27;20426;-85
2021/11/07 07:53:22;;;;;;;2.57;1.67;;;3.10;99.90;2.70;97161.00;;;;5107640;27;20979;-85
2021/11/07 07:56:15;;;;;;;2.47;2.27;;;3.20;99.90;2.80;97169.00;;;;5109192;28;20939;-90
2021/11/07 07:59:05;;;;;;;1.90;1.80;;;3.20;99.90;2.80;97161.00;;;;5119022;28;21159;-92
2021/11/07 08:01:58;;;;;;;3.07;2.20;;;3.30;99.90;2.60;97154.00;;;;5115956;28;20478;-91
2021/11/07 08:04:47;;;;;;;2.87;1.60;;;3.30;99.90;2.80;97148.00;;;;5087106;28;20433;-91
2021/11/07 08:07:36;;;;;;;1.77;1.40;;;3.30;99.90;2.80;97141.00;;;;5102823;28;20450;-91
2021/11/07 08:10:25;;;;;;;2.43;2.03;;;3.40;99.90;3.00;97136.00;;;;5125759;28;20803;-91
2021/11/07 08:13:15;;;;;;;5.23;2.13;;;3.50;99.90;3.20;97131.00;;;;5087412;28;20429;-90
2021/11/07 08:16:05;;;;;;;2.43;2.17;;;3.50;99.90;3.40;97128.00;;;;5100246;28;20416;-89
2021/11/07 08:18:56;;;;;;;3.23;2.17;;;3.60;99.90;3.50;97113.00;;;;5089361;28;20483;-91
2021/11/07 08:21:45;;;;;;;4.90;2.30;;;3.80;99.90;3.60;97113.00;;;;5087061;28;20465;-94
2021/11/07 08:24:36;;;;;;;2.70;1.90;;;3.90;99.90;3.90;97092.00;;;;5099419;28;20455;-91
2021/11/07 08:27:26;;;;;;;2.23;1.90;;;4.10;99.90;4.00;97070.00;;;;5115483;28;20425;-92
2021/11/07 08:30:17;;;;;;;2.50;2.30;;;4.20;99.90;4.10;97060.00;;;;5110162;28;20419;-91
2021/11/07 08:33:07;;;;;;;3.07;1.70;;;4.40;99.90;4.10;97046.00;;;;5116360;28;20417;-91
2021/11/07 08:36:03;;;;;;;3.23;2.93;;;4.50;99.90;4.40;97054.00;;;;5104171;27;20204;-91
2021/11/07 08:38:59;;;;;;;4.07;2.33;;;4.60;99.90;4.60;97045.00;;;;5110093;28;20203;-90
2021/11/07 08:41:54;;;;;;;3.27;1.80;;;4.70;99.90;4.50;97042.00;;;;5120114;28;20230;-92
2021/11/07 08:54:33;;;;;;;4.40;2.50;;;5.10;99.90;5.40;97055.00;;;;5111073;27;20207;-91
2021/11/07 09:00:30;;;;;;;3.27;2.80;;;5.60;99.90;6.00;97049.00;;;;5100804;27;20601;-92
2021/11/07 09:03:29;;;;;;;6.60;3.07;;;5.80;99.90;6.20;97055.00;;;;5100979;27;20582;-91
2021/11/07 09:07:00;;;;;;;4.57;2.70;;;6.10;99.90;6.60;97045.00;;;;5102935;27;20225;-89
2021/11/07 09:10:04;;;;;;;5.03;2.60;;;6.30;99.90;6.90;97044.00;;;;5087447;28;20207;-85
2021/11/07 09:12:53;;;;;;;4.17;3.03;;;6.60;99.90;7.00;97043.00;;;;5102893;28;20308;-85
2021/11/07 09:15:45;;;;;;;2.80;2.33;;;6.90;99.90;7.10;97042.00;;;;5110489;28;20198;-85
2021/11/07 09:18:34;;;;;;;3.03;2.47;;;7.00;99.90;7.00;97042.00;;;;5109723;27;20195;-86
2021/11/07 09:21:28;;;;;;;3.50;2.63;;;7.20;99.90;7.10;97042.00;;;;5118713;27;20218;-88
2021/11/07 09:24:26;;;;;;;4.27;2.97;;;7.30;99.90;7.50;97037.00;;;;5102558;27;20220;-90
2021/11/07 09:27:21;;;;;;;4.47;2.80;;;7.40;99.90;8.00;97038.00;;;;5097548;27;20206;-90
2021/11/07 09:30:16;;;;;;;3.13;2.83;;;7.70;99.90;8.10;97024.00;;;;5114401;27;20215;-86
2021/11/07 09:33:11;;;;;;;5.30;2.60;;;8.00;99.90;8.40;97029.00;;;;5104300;27;20691;-88
2021/11/07 09:39:18;;;;;;;4.43;2.90;;;8.40;99.90;8.50;97039.00;;;;5061056;28;20231;-85
2021/11/07 09:45:22;;;;;;;3.80;2.33;;;8.60;99.90;9.20;97032.00;;;;5053743;28;20216;-90
2021/11/07 09:48:18;;;;;;;4.40;2.53;;;8.80;99.90;9.80;97030.00;;;;5084157;28;20205;-94
2021/11/07 09:51:16;;;;;;;4.93;2.93;;;10.50;99.90;10.20;97032.00;;;;5067646;28;20193;-89
2021/11/07 09:54:07;;;;;;;3.97;2.77;;;9.50;99.90;10.70;97037.00;;;;5075857;28;20245;-91
2021/11/07 09:56:58;;;;;;;3.87;2.40;;;9.80;99.90;10.80;97034.00;;;;5073763;28;20207;-92
2021/11/07 09:59:51;;;;;;;5.93;2.30;;;10.10;99.90;11.20;97031.00;;;;5060687;28;20688;-90
2021/11/07 10:02:42;;;;;;;4.07;2.80;;;10.40;99.90;11.50;97032.00;;;;5075815;28;20223;-89
2021/11/07 10:05:47;;;;;;;3.00;2.27;;;10.70;99.90;11.60;97034.00;;;;5068844;28;20219;-84
2021/11/07 10:08:43;;;;;;;2.90;2.30;;;11.00;99.90;11.90;97025.00;;;;5063446;28;20210;-85
2021/11/07 10:11:36;;;;;;;1.77;1.60;;;11.30;99.90;12.10;97026.00;;;;5052159;28;20204;-92
2021/11/07 10:14:43;;;;;;;2.67;1.97;;;11.50;99.90;12.50;97021.00;;;;5058382;28;20223;-92
2021/11/07 10:17:37;;;;;;;4.10;2.30;;;11.90;99.90;12.80;97023.00;;;;5068250;28;20678;-92
2021/11/07 10:20:33;;;;;;;2.43;1.90;;;12.30;99.90;13.30;97025.00;;;;5066143;28;20199;-89
2021/11/07 10:23:27;;;;;;;5.40;2.10;;;12.70;99.90;13.70;97019.00;;;;5064946;28;20200;-91
2021/11/07 10:26:20;;;;;;;3.67;2.10;;;13.10;99.90;14.10;97010.00;;;;5074260;28;20198;-89
2021/11/07 10:29:22;;;;;;;3.63;1.80;;;13.60;99.90;14.10;96993.00;;;;5083083;28;20195;-91
2021/11/07 10:32:23;;;;;;;2.27;1.80;;;13.90;98.50;13.60;96993.00;;;;5065177;28;20227;-89
2021/11/07 10:38:51;;;;;;;3.57;2.23;;;14.10;96.90;14.50;96968.00;;;;5035988;28;20669;-82
2021/11/07 10:41:54;;;;;;;2.53;2.03;;;14.30;93.90;14.40;96963.00;;;;5049645;28;20681;-84
2021/11/07 10:48:20;;;;;;;3.13;2.37;;;14.80;93.00;15.50;96937.00;;;;5056767;28;20609;-89
2021/11/07 10:54:21;;;;;;;5.07;2.03;;;15.70;90.60;16.40;96923.00;;;;5062945;28;20267;-86
2021/11/07 10:57:20;;;;;;;2.53;1.33;;;15.70;90.20;16.60;96916.00;;;;5051074;28;20205;-87
2021/11/07 11:00:29;;;;;;;2.23;1.87;;;16.10;86.60;16.40;96900.00;;;;5048222;28;20251;-85
2021/11/07 11:03:20;;;;;;;2.77;1.60;;;16.40;81.50;17.30;96907.00;;;;5048503;28;20220;-88
2021/11/07 11:06:12;;;;;;;2.93;1.67;;;16.70;82.90;17.20;96902.00;;;;5048679;28;20205;-89
2021/11/07 11:09:07;;;;;;;2.13;1.60;;;17.10;78.90;17.20;96897.00;;;;5055452;28;20214;-88
2021/11/07 11:12:09;;;;;;;2.03;1.17;;;17.20;76.40;17.80;96880.00;;;;5068011;28;20229;-89
2021/11/07 11:15:13;;;;;;;2.10;1.47;;;17.40;76.10;17.80;96879.00;;;;5065965;28;20696;-89
2021/11/07 11:18:18;;;;;;;2.57;1.10;;;17.60;74.80;18.40;96877.00;;;;5065828;28;20214;-87
2021/11/07 11:27:49;;;;;;;2.13;1.10;;;18.20;66.60;18.50;96864.00;;;;5042448;28;20210;-91
2021/11/07 11:34:12;;;;;;;4.10;1.73;;;18.70;66.80;18.70;96874.00;;;;4990482;28;20226;-88
2021/11/07 11:37:07;;;;;;;2.23;1.57;;;18.80;63.20;19.00;96878.00;;;;4983677;28;20211;-86
2021/11/07 11:40:02;;;;;;;2.23;1.50;;;19.20;62.50;20.00;96889.00;;;;5059017;28;20757;-84
2021/11/07 11:42:56;;;;;;;2.03;1.40;;;19.50;62.60;20.80;96899.00;;;;5067615;28;20690;-94
2021/11/07 11:45:54;;;;;;;1.57;1.30;;;20.10;62.20;21.60;96899.00;;;;5062069;28;20194;-89
2021/11/07 11:52:18;;;;;;;2.10;1.40;;;21.60;57.20;21.60;96878.00;;;;5068637;28;20221;-86
2021/11/07 11:58:22;;;;;;;2.83;1.10;;;22.00;55.20;21.00;96871.00;;;;5060456;28;20211;-82
2021/11/07 12:01:18;;;;;;;2.47;1.30;;;22.00;53.60;20.80;96859.00;;;;5055130;28;20204;-83
2021/11/07 12:04:14;;;;;;;1.23;1.08;;;22.10;53.20;21.70;96861.00;;;;5048424;28;20224;-83
2021/11/07 12:07:21;;;;;;;2.50;1.70;;;22.20;53.30;21.10;96848.00;;;;5048813;28;20204;-82
2021/11/07 12:10:28;;;;;;;2.40;2.17;;;22.00;54.50;21.50;96854.00;;;;5047920;28;20211;-81
2021/11/07 12:13:37;;;;;;;8.50;2.40;;;22.00;54.70;19.00;96845.00;;;;5064264;28;20229;-82
2021/11/07 12:16:52;;;;;;;3.53;1.90;;;22.10;52.90;20.30;96858.00;;;;5061476;28;20206;-83
2021/11/07 12:19:44;;;;;;;5.87;2.60;;;21.40;54.20;21.10;96854.00;;;;5061381;28;20228;-82
2021/11/07 12:22:35;;;;;;;6.70;2.00;;;21.40;55.20;21.50;96853.00;;;;5068674;28;20214;-83
2021/11/07 12:25:29;;;;;;;2.73;2.23;;;21.70;55.10;21.90;96853.00;;;;5065374;28;20606;-89
2021/11/07 12:28:21;;;;;;;3.20;2.10;;;22.00;54.40;19.60;96835.00;;;;5068223;28;20635;-85
2021/11/07 12:31:10;;;;;;;3.33;2.13;;;21.70;53.40;20.70;96830.00;;;;5071260;28;20202;-93
2021/11/07 12:34:06;;;;;;;3.63;1.70;;;21.50;53.90;20.40;96825.00;;;;5077441;28;20224;-84
2021/11/07 12:43:13;;;;;;;3.73;1.90;;;21.70;53.20;20.10;96816.00;;;;5085882;28;20591;-82
2021/11/07 12:46:31;;;;;;;3.67;2.00;;;21.70;52.70;21.20;96827.00;;;;5069657;28;20205;-82
2021/11/07 12:49:23;;;;;;;2.77;1.90;;;21.70;52.40;21.70;96816.00;;;;5066346;28;20199;-82
2021/11/07 12:52:16;;;;;;;3.30;2.43;;;21.70;52.60;21.40;96825.00;;;;5066208;28;20695;-84
2021/11/07 12:55:25;;;;;;;5.80;2.43;;;21.50;53.10;17.80;96803.00;;;;5066468;28;20225;-85
2021/11/07 12:58:14;;;;;;;5.33;2.80;;;21.30;52.20;17.00;96808.00;;;;5069102;28;20211;-85
2021/11/07 13:01:04;;;;;;;5.40;2.50;;;20.80;52.80;17.50;96810.00;;;;5075527;28;20218;-84
2021/11/07 13:03:54;;;;;;;4.00;2.57;;;19.90;53.00;19.60;96815.00;;;;5072695;28;20226;-82
2021/11/07 13:06:43;;;;;;;4.40;2.37;;;19.50;55.00;20.40;96828.00;;;;5076936;28;20204;-84
2021/11/07 13:09:37;;;;;;;7.27;2.37;;;19.60;55.10;20.20;96819.00;;;;5057559;28;20696;-83
2021/11/07 13:12:34;;;;;;;3.07;2.17;;;19.90;55.00;20.30;96819.00;;;;5059172;28;20233;-84
2021/11/07 13:15:36;;;;;;;2.90;2.40;;;20.10;55.40;21.30;96829.00;;;;5056014;28;20230;-83
2021/11/07 13:18:44;;;;;;;7.27;2.17;;;20.50;55.60;20.50;96830.00;;;;5069581;28;20218;-84
2021/11/07 13:21:43;;;;;;;7.80;3.30;;;20.80;54.40;21.40;96821.00;;;;5078135;28;20207;-83
2021/11/07 13:24:44;;;;;;;9.37;2.83;;;20.90;54.90;22.00;96814.00;;;;5062620;28;20236;-84
2021/11/07 13:27:42;;;;;;;6.83;4.17;;;21.20;54.50;21.30;96816.00;;;;5060346;28;20224;-84
2021/11/07 13:30:32;;;;;;;4.10;2.97;;;21.60;53.10;20.70;96812.00;;;;5056100;28;20691;-84
2021/11/07 13:33:22;;;;;;;3.53;2.27;;;21.60;52.80;21.50;96814.00;;;;5054730;28;20222;-85
2021/11/07 13:36:15;;;;;;;6.00;2.80;;;21.60;53.50;20.40;96823.00;;;;5081702;28;20712;-89
2021/11/07 13:39:04;;;;;;;3.73;2.93;;;21.40;53.10;21.10;96808.00;;;;5051001;28;20225;-91
2021/11/07 13:41:58;;;;;;;7.20;2.73;;;21.20;53.30;20.90;96811.00;;;;5075597;28;20682;-91
2021/11/07 13:44:55;;;;;;;9.27;3.00;;;21.10;53.40;21.10;96800.00;;;;5066624;28;20224;-83
2021/11/07 13:47:45;;;;;;;7.13;3.40;;;21.00;53.70;20.30;96800.00;;;;5082304;28;20593;-85
2021/11/07 13:50:36;;;;;;;6.80;3.47;;;20.90;53.50;21.20;96813.00;;;;5059538;28;20711;-93
2021/11/07 13:53:28;;;;;;;11.63;3.60;;;21.10;54.00;20.70;96803.00;;;;5073093;28;20218;-92
2021/11/07 13:56:17;;;;;;;6.23;3.00;;;21.20;53.30;20.60;96804.00;;;;5056565;28;20210;-92
2021/11/07 13:59:09;;;;;;;4.97;3.13;;;21.10;53.30;20.30;96808.00;;;;5073652;28;20223;-91